Time;durP1;ratioP1;P1;durP2;ratioP2;P2;SDS_P1;SDS_P2;PMS_P1;PMS_P2;Temp;Humidity;BMP_temperature;BMP_pressure;BME280_temperature;BME280_humidity;BME280_pressure;Samples;Min_cycle;Max_cycle;Signal;HPM_P1;HPM_P2
2022/09/29 00:01:33;;;;;;;;;;;18.70;49.20;;;;;;8336635;28;20321;-46
2022/09/29 00:05:33;;;;;;;;;;;18.70;49.20;;;;;;8335837;28;19921;-46
2022/09/29 00:09:34;;;;;;;;;;;18.70;49.20;;;;;;8336725;28;19963;-46
2022/09/29 00:13:34;;;;;;;;;;;18.70;49.20;;;;;;8335860;28;20000;-46
2022/09/29 00:17:35;;;;;;;;;;;18.70;49.30;;;;;;8335220;28;20018;-46
2022/09/29 00:21:35;;;;;;;;;;;18.60;49.20;;;;;;8336043;28;19913;-46
2022/09/29 00:25:36;;;;;;;;;;;18.60;49.30;;;;;;8335771;28;19917;-46
2022/09/29 00:29:36;;;;;;;;;;;18.70;49.30;;;;;;8335036;28;20301;-46
2022/09/29 00:33:37;;;;;;;;;;;18.60;49.20;;;;;;8335312;28;20378;-46
2022/09/29 00:37:39;;;;;;;;;;;18.60;49.20;;;;;;8335353;28;19925;-46
2022/09/29 00:41:40;;;;;;;;;;;18.60;49.20;;;;;;8334690;28;20062;-47
2022/09/29 00:45:41;;;;;;;;;;;18.60;49.20;;;;;;8335224;28;19949;-47
2022/09/29 00:49:49;;;;;;;;;;;18.60;49.20;;;;;;8334828;28;20305;-46
2022/09/29 00:53:50;;;;;;;;;;;18.60;49.20;;;;;;8333665;28;20323;-46
2022/09/29 00:57:56;;;;;;;;;;;18.70;49.20;;;;;;8334692;28;19987;-46
2022/09/29 01:01:57;;;;;;;;;;;18.60;49.20;;;;;;8333786;28;19923;-45
2022/09/29 01:06:02;;;;;;;;;;;18.60;49.20;;;;;;8334075;28;19914;-45
2022/09/29 01:10:03;;;;;;;;;;;18.60;49.20;;;;;;8334641;28;19920;-46
2022/09/29 01:14:05;;;;;;;;;;;18.60;49.20;;;;;;8334111;28;20382;-47
2022/09/29 01:18:06;;;;;;;;;;;18.60;49.20;;;;;;8333501;28;19926;-45
2022/09/29 01:22:26;;;;;;;;;;;18.60;49.20;;;;;;8334008;28;19972;-45
2022/09/29 01:26:35;;;;;;;;;;;18.60;49.20;;;;;;8333906;28;19932;-45
2022/09/29 01:30:42;;;;;;;;;;;18.60;49.20;;;;;;8333930;28;19913;-45
2022/09/29 01:34:49;;;;;;;;;;;18.60;49.20;;;;;;8333521;28;19940;-46
2022/09/29 01:39:08;;;;;;;;;;;18.60;49.20;;;;;;8332825;28;19998;-46
2022/09/29 01:43:11;;;;;;;;;;;18.60;49.20;;;;;;8333203;28;19929;-45
2022/09/29 01:47:14;;;;;;;;;;;18.60;49.20;;;;;;8333164;28;19963;-45
2022/09/29 01:51:16;;;;;;;;;;;18.60;49.20;;;;;;8332778;28;19913;-45
2022/09/29 01:55:18;;;;;;;;;;;18.60;49.20;;;;;;8332972;28;20267;-45
2022/09/29 01:59:32;;;;;;;;;;;18.60;49.70;;;;;;8332512;28;19925;-46
2022/09/29 02:03:39;;;;;;;;;;;18.60;49.10;;;;;;8332333;28;20262;-45
2022/09/29 02:07:41;;;;;;;;;;;18.50;49.10;;;;;;8331364;28;20004;-45
2022/09/29 02:11:42;;;;;;;;;;;18.60;49.20;;;;;;8332045;28;19913;-45
2022/09/29 02:15:44;;;;;;;;;;;18.50;49.10;;;;;;8332748;28;20004;-45
2022/09/29 02:19:47;;;;;;;;;;;18.50;49.20;;;;;;8332017;28;19926;-45
2022/09/29 02:23:47;;;;;;;;;;;18.50;49.10;;;;;;8331540;28;19917;-46
2022/09/29 02:27:49;;;;;;;;;;;18.50;49.10;;;;;;8332126;28;19998;-45
2022/09/29 02:31:49;;;;;;;;;;;18.50;49.10;;;;;;8331954;28;20361;-46
2022/09/29 02:35:56;;;;;;;;;;;18.50;49.10;;;;;;8331228;28;19928;-46
2022/09/29 02:40:02;;;;;;;;;;;18.50;49.10;;;;;;8331400;28;19925;-46
2022/09/29 02:44:12;;;;;;;;;;;18.50;49.10;;;;;;8331593;28;19913;-45
2022/09/29 02:48:31;;;;;;;;;;;18.60;49.20;;;;;;8330794;28;19924;-46
2022/09/29 02:52:46;;;;;;;;;;;18.50;49.10;;;;;;8331111;28;19971;-47
2022/09/29 02:56:59;;;;;;;;;;;18.50;49.10;;;;;;8330404;28;19925;-45
2022/09/29 03:01:00;;;;;;;;;;;18.50;49.10;;;;;;8331069;28;19917;-45
2022/09/29 03:05:01;;;;;;;;;;;18.50;49.20;;;;;;8330748;28;20333;-45
2022/09/29 03:09:02;;;;;;;;;;;18.50;49.20;;;;;;8330246;28;19925;-45
2022/09/29 03:13:02;;;;;;;;;;;18.50;49.20;;;;;;8330813;28;19959;-45
2022/09/29 03:17:02;;;;;;;;;;;18.50;49.10;;;;;;8330278;28;20370;-46
2022/09/29 03:21:04;;;;;;;;;;;18.50;49.20;;;;;;8330170;28;19917;-45
2022/09/29 03:25:05;;;;;;;;;;;18.50;49.20;;;;;;8330286;28;19917;-46
2022/09/29 03:29:06;;;;;;;;;;;18.50;49.10;;;;;;8330326;28;19913;-45
2022/09/29 03:33:06;;;;;;;;;;;18.50;49.10;;;;;;8329760;28;19928;-45
2022/09/29 03:37:07;;;;;;;;;;;18.50;49.10;;;;;;8330272;28;19932;-45
2022/09/29 03:41:09;;;;;;;;;;;18.50;49.10;;;;;;8329537;28;20406;-45
2022/09/29 03:45:10;;;;;;;;;;;18.50;49.10;;;;;;8329517;28;20369;-45
2022/09/29 03:49:10;;;;;;;;;;;18.50;49.10;;;;;;8329822;28;20129;-45
2022/09/29 03:53:11;;;;;;;;;;;18.50;49.10;;;;;;8329857;28;19917;-46
2022/09/29 03:57:11;;;;;;;;;;;18.50;49.10;;;;;;8329447;28;20016;-45
2022/09/29 04:01:12;;;;;;;;;;;18.50;49.10;;;;;;8330164;28;19924;-46
2022/09/29 04:05:12;;;;;;;;;;;18.50;49.10;;;;;;8329742;28;19927;-46
2022/09/29 04:09:13;;;;;;;;;;;18.50;49.10;;;;;;8325745;28;19917;-45
2022/09/29 04:13:13;;;;;;;;;;;18.50;49.10;;;;;;8329493;28;19914;-46
2022/09/29 04:17:14;;;;;;;;;;;18.50;49.10;;;;;;8329760;28;19932;-45
2022/09/29 04:21:15;;;;;;;;;;;18.50;49.00;;;;;;8329199;28;19924;-46
2022/09/29 04:25:16;;;;;;;;;;;18.50;49.10;;;;;;8329652;28;19917;-47
2022/09/29 04:29:16;;;;;;;;;;;18.50;49.10;;;;;;8331331;28;19939;-46
2022/09/29 04:33:17;;;;;;;;;;;18.50;49.10;;;;;;8334974;28;19924;-45
2022/09/29 04:37:17;;;;;;;;;;;18.50;49.10;;;;;;8335431;28;19925;-46
2022/09/29 04:41:18;;;;;;;;;;;18.50;49.10;;;;;;8335339;28;19917;-45
2022/09/29 04:45:18;;;;;;;;;;;18.50;49.10;;;;;;8334413;28;19918;-45
2022/09/29 04:49:19;;;;;;;;;;;18.50;49.10;;;;;;8335128;28;19943;-47
2022/09/29 04:53:19;;;;;;;;;;;18.50;49.10;;;;;;8334939;28;19924;-45
2022/09/29 04:57:20;;;;;;;;;;;18.50;49.10;;;;;;8334538;28;19922;-46
2022/09/29 05:01:20;;;;;;;;;;;18.50;49.10;;;;;;8334569;28;19975;-46
2022/09/29 05:05:21;;;;;;;;;;;18.50;49.10;;;;;;8334416;28;19921;-45
2022/09/29 05:09:21;;;;;;;;;;;18.50;49.10;;;;;;8333815;28;20294;-46
2022/09/29 05:13:23;;;;;;;;;;;18.50;49.10;;;;;;8334167;28;19996;-45
2022/09/29 05:17:23;;;;;;;;;;;18.50;49.10;;;;;;8334297;28;20361;-46
2022/09/29 05:21:24;;;;;;;;;;;18.50;49.20;;;;;;8333882;28;19917;-46
2022/09/29 05:25:27;;;;;;;;;;;18.50;49.20;;;;;;8334021;28;19917;-45
2022/09/29 05:29:28;;;;;;;;;;;18.50;49.20;;;;;;8333758;28;20367;-46
2022/09/29 05:33:28;;;;;;;;;;;18.50;49.20;;;;;;8333202;28;19921;-45
2022/09/29 05:37:29;;;;;;;;;;;18.50;49.20;;;;;;8333424;28;19931;-45
2022/09/29 05:41:29;;;;;;;;;;;18.50;49.20;;;;;;8332870;28;19916;-46
2022/09/29 05:45:30;;;;;;;;;;;18.50;49.20;;;;;;8333137;28;20008;-46
2022/09/29 05:49:31;;;;;;;;;;;18.50;49.30;;;;;;8333026;28;19913;-46
2022/09/29 05:53:32;;;;;;;;;;;18.50;49.30;;;;;;8332568;28;19983;-45
2022/09/29 05:57:32;;;;;;;;;;;18.50;49.30;;;;;;8332953;28;20262;-46
2022/09/29 06:01:33;;;;;;;;;;;18.50;49.30;;;;;;8332747;28;20330;-45
2022/09/29 06:05:37;;;;;;;;;;;18.50;49.30;;;;;;8332178;28;19914;-45
2022/09/29 06:09:37;;;;;;;;;;;18.50;49.30;;;;;;8332713;28;19944;-45
2022/09/29 06:13:38;;;;;;;;;;;18.50;49.90;;;;;;8332248;28;19945;-47
2022/09/29 06:17:39;;;;;;;;;;;18.50;49.40;;;;;;8331948;28;20404;-45
2022/09/29 06:21:39;;;;;;;;;;;18.50;49.40;;;;;;8332494;28;19921;-45
2022/09/29 06:25:40;;;;;;;;;;;18.50;49.40;;;;;;8332099;28;20004;-46
2022/09/29 06:29:40;;;;;;;;;;;18.50;49.40;;;;;;8331494;28;20127;-46
2022/09/29 06:33:41;;;;;;;;;;;18.50;49.40;;;;;;8331676;28;19917;-45
2022/09/29 06:37:45;;;;;;;;;;;18.50;49.40;;;;;;8331903;28;19929;-45
2022/09/29 06:41:50;;;;;;;;;;;18.50;49.40;;;;;;8331296;28;20000;-45
2022/09/29 06:45:51;;;;;;;;;;;18.50;49.40;;;;;;8331673;28;19918;-45
2022/09/29 06:49:51;;;;;;;;;;;18.50;49.40;;;;;;8331149;28;19921;-47
2022/09/29 06:53:52;;;;;;;;;;;18.50;49.40;;;;;;8330242;28;20027;-45
2022/09/29 06:57:53;;;;;;;;;;;18.50;49.50;;;;;;8331491;28;20301;-46
2022/09/29 07:01:53;;;;;;;;;;;18.50;49.50;;;;;;8331108;28;19921;-46
2022/09/29 07:05:53;;;;;;;;;;;18.50;49.50;;;;;;8330408;28;19917;-45
2022/09/29 07:09:54;;;;;;;;;;;18.50;49.50;;;;;;8323717;28;19957;-46
2022/09/29 07:13:55;;;;;;;;;;;18.50;49.50;;;;;;8302053;28;19923;-46
2022/09/29 07:17:56;;;;;;;;;;;18.50;49.50;;;;;;8330307;28;19925;-46
2022/09/29 07:21:57;;;;;;;;;;;18.50;49.50;;;;;;8330543;28;19951;-46
2022/09/29 07:25:58;;;;;;;;;;;18.50;49.50;;;;;;8330580;28;19921;-45
2022/09/29 07:29:58;;;;;;;;;;;18.50;49.50;;;;;;8329794;28;19924;-45
2022/09/29 07:33:59;;;;;;;;;;;18.50;49.50;;;;;;8330071;28;19921;-47
2022/09/29 07:37:59;;;;;;;;;;;18.50;49.60;;;;;;8330183;28;19984;-46
2022/09/29 07:42:00;;;;;;;;;;;18.50;49.60;;;;;;8329788;28;19917;-46
2022/09/29 07:46:00;;;;;;;;;;;18.50;49.60;;;;;;8330126;28;20297;-45
2022/09/29 07:50:01;;;;;;;;;;;18.50;49.50;;;;;;8330086;28;19921;-46
2022/09/29 07:54:03;;;;;;;;;;;18.50;49.60;;;;;;8329581;28;19979;-46
2022/09/29 07:58:03;;;;;;;;;;;18.50;49.50;;;;;;8330297;28;19949;-45
2022/09/29 08:02:04;;;;;;;;;;;18.60;49.60;;;;;;8330030;28;19921;-45
2022/09/29 08:06:08;;;;;;;;;;;18.60;49.60;;;;;;8334281;28;19917;-45
2022/09/29 08:10:09;;;;;;;;;;;18.60;49.60;;;;;;8336104;28;20321;-45
2022/09/29 08:14:13;;;;;;;;;;;18.50;49.50;;;;;;8336174;28;19926;-46
2022/09/29 08:18:13;;;;;;;;;;;18.50;49.50;;;;;;8335771;28;19921;-46
2022/09/29 08:22:14;;;;;;;;;;;18.60;49.60;;;;;;8335907;28;19917;-46
2022/09/29 08:26:15;;;;;;;;;;;18.60;49.50;;;;;;8335967;28;20360;-46
2022/09/29 08:30:16;;;;;;;;;;;18.60;49.50;;;;;;8335584;28;20038;-45
2022/09/29 08:34:16;;;;;;;;;;;18.60;49.50;;;;;;8335402;28;19928;-45
2022/09/29 08:38:17;;;;;;;;;;;18.60;49.50;;;;;;8335450;28;20294;-45
2022/09/29 08:42:47;;;;;;;;;;;18.50;49.40;;;;;;8334883;28;20305;-45
2022/09/29 08:46:51;;;;;;;;;;;18.60;49.50;;;;;;8322097;28;19924;-45
2022/09/29 08:50:55;;;;;;;;;;;18.60;49.50;;;;;;8334593;28;19924;-45
2022/09/29 08:54:59;;;;;;;;;;;18.60;49.50;;;;;;8334752;28;19913;-46
2022/09/29 08:59:00;;;;;;;;;;;18.60;49.50;;;;;;8335070;28;19932;-46
2022/09/29 09:03:20;;;;;;;;;;;18.60;49.40;;;;;;8334244;28;19924;-46
2022/09/29 09:07:29;;;;;;;;;;;18.60;49.50;;;;;;8334561;28;19917;-45
2022/09/29 09:11:46;;;;;;;;;;;18.60;49.50;;;;;;8333962;28;19913;-46
2022/09/29 09:16:01;;;;;;;;;;;18.60;49.50;;;;;;8333811;28;19921;-46
2022/09/29 09:20:02;;;;;;;;;;;18.60;49.50;;;;;;8334006;28;19925;-46
2022/09/29 09:24:14;;;;;;;;;;;18.60;49.50;;;;;;8333666;28;19940;-45
2022/09/29 09:28:33;;;;;;;;;;;18.60;49.50;;;;;;8333754;28;20414;-45
2022/09/29 09:32:36;;;;;;;;;;;18.70;49.50;;;;;;8333326;28;20398;-45
2022/09/29 09:36:44;;;;;;;;;;;18.70;49.50;;;;;;8333530;28;19925;-46
2022/09/29 09:40:46;;;;;;;;;;;18.70;49.50;;;;;;8333510;28;19951;-47
2022/09/29 09:44:50;;;;;;;;;;;18.70;49.50;;;;;;8333017;28;19917;-45
2022/09/29 09:49:03;;;;;;;;;;;18.70;49.40;;;;;;8333654;28;20422;-45
2022/09/29 09:53:09;;;;;;;;;;;18.70;49.40;;;;;;8333034;28;19952;-45
2022/09/29 09:57:24;;;;;;;;;;;18.70;49.40;;;;;;8332675;28;20008;-45
2022/09/29 10:01:24;;;;;;;;;;;18.70;49.40;;;;;;8333273;28;19963;-46
2022/09/29 10:05:29;;;;;;;;;;;18.70;49.40;;;;;;8332734;28;19917;-46
2022/09/29 10:09:29;;;;;;;;;;;18.70;49.40;;;;;;8331574;28;19913;-45
2022/09/29 10:13:30;;;;;;;;;;;18.70;49.40;;;;;;8332369;28;19916;-45
2022/09/29 10:17:34;;;;;;;;;;;18.70;49.40;;;;;;8331498;28;19921;-45
2022/09/29 10:21:38;;;;;;;;;;;18.70;49.40;;;;;;8332174;28;19917;-45
2022/09/29 10:25:38;;;;;;;;;;;18.70;49.40;;;;;;8331789;28;19993;-46
2022/09/29 10:29:40;;;;;;;;;;;18.70;49.30;;;;;;8331385;28;20301;-46
2022/09/29 10:33:45;;;;;;;;;;;18.70;49.30;;;;;;8332117;28;20374;-45
2022/09/29 10:37:46;;;;;;;;;;;18.80;49.40;;;;;;8331718;28;20397;-46
2022/09/29 10:41:53;;;;;;;;;;;18.70;49.30;;;;;;8331284;28;19943;-45
2022/09/29 10:45:59;;;;;;;;;;;18.80;49.40;;;;;;8331665;28;19913;-46
2022/09/29 10:50:15;;;;;;;;;;;18.80;49.30;;;;;;8331268;28;19924;-45
2022/09/29 10:54:15;;;;;;;;;;;18.80;49.30;;;;;;8330996;28;20289;-46
2022/09/29 10:58:36;;;;;;;;;;;18.80;49.30;;;;;;8330963;28;19925;-45
2022/09/29 11:02:38;;;;;;;;;;;18.80;49.20;;;;;;8330383;28;19913;-45
2022/09/29 11:06:39;;;;;;;;;;;18.80;49.20;;;;;;8330787;28;19917;-44
2022/09/29 11:10:40;;;;;;;;;;;18.80;49.20;;;;;;8330677;28;20290;-45
2022/09/29 11:14:41;;;;;;;;;;;18.80;49.20;;;;;;8330397;28;20004;-47
2022/09/29 11:18:43;;;;;;;;;;;18.80;49.10;;;;;;8330802;28;20439;-45
2022/09/29 11:23:02;;;;;;;;;;;18.80;49.10;;;;;;8330336;28;19917;-45
2022/09/29 11:27:02;;;;;;;;;;;18.80;49.10;;;;;;8330067;28;19917;-46
2022/09/29 11:31:22;;;;;;;;;;;18.90;49.10;;;;;;8330434;28;19914;-46
2022/09/29 11:35:32;;;;;;;;;;;18.90;49.10;;;;;;8330194;28;20255;-45
2022/09/29 11:39:33;;;;;;;;;;;19.00;49.10;;;;;;8329717;28;19975;-45
2022/09/29 11:43:43;;;;;;;;;;;19.00;49.00;;;;;;8330255;28;19987;-45
2022/09/29 11:48:02;;;;;;;;;;;19.00;49.00;;;;;;8329700;28;19918;-45
2022/09/29 11:52:15;;;;;;;;;;;18.90;48.90;;;;;;8330092;28;20325;-46
2022/09/29 11:56:30;;;;;;;;;;;19.00;48.90;;;;;;8329713;28;19927;-45
2022/09/29 12:00:53;;;;;;;;;;;19.00;48.90;;;;;;8329989;28;19913;-46
2022/09/29 12:04:53;;;;;;;;;;;19.00;48.80;;;;;;8330060;28;20285;-46
2022/09/29 12:09:01;;;;;;;;;;;19.00;48.80;;;;;;8329335;28;19955;-46
2022/09/29 12:13:19;;;;;;;;;;;19.00;48.80;;;;;;8329848;28;20444;-45
2022/09/29 12:17:21;;;;;;;;;;;19.00;48.80;;;;;;8329674;28;19925;-45
2022/09/29 12:21:31;;;;;;;;;;;19.00;48.80;;;;;;8329134;28;19917;-45
2022/09/29 12:25:37;;;;;;;;;;;19.10;48.80;;;;;;8329757;28;19919;-45
2022/09/29 12:29:40;;;;;;;;;;;19.00;48.80;;;;;;8329057;28;19917;-45
2022/09/29 12:33:46;;;;;;;;;;;19.10;48.80;;;;;;8329263;28;20020;-46
2022/09/29 12:37:52;;;;;;;;;;;19.10;48.80;;;;;;8329422;28;19925;-46
2022/09/29 12:42:02;;;;;;;;;;;19.10;48.80;;;;;;8328862;28;20363;-44
2022/09/29 12:46:10;;;;;;;;;;;19.10;48.80;;;;;;8327803;28;19971;-45
2022/09/29 12:50:15;;;;;;;;;;;19.10;48.70;;;;;;8333996;28;19919;-45
2022/09/29 12:54:19;;;;;;;;;;;19.10;48.80;;;;;;8334459;28;20285;-44
2022/09/29 12:58:28;;;;;;;;;;;19.10;48.70;;;;;;8335062;28;19933;-45
2022/09/29 13:02:47;;;;;;;;;;;19.10;48.70;;;;;;8334576;28;19917;-47
2022/09/29 13:06:50;;;;;;;;;;;19.10;48.70;;;;;;8317349;28;19917;-46
2022/09/29 13:10:54;;;;;;;;;;;19.10;48.70;;;;;;8334440;28;19913;-44
2022/09/29 13:14:57;;;;;;;;;;;19.10;48.70;;;;;;8333987;28;19913;-45
2022/09/29 13:19:09;;;;;;;;;;;19.10;48.70;;;;;;8334029;28;19932;-43
2022/09/29 13:23:24;;;;;;;;;;;19.10;48.70;;;;;;8333942;28;19918;-44
2022/09/29 13:27:30;;;;;;;;;;;19.10;48.70;;;;;;8333506;28;19917;-45
2022/09/29 13:31:34;;;;;;;;;;;19.10;48.70;;;;;;8334038;28;19917;-44
2022/09/29 13:35:39;;;;;;;;;;;19.10;49.20;;;;;;8332944;28;20372;-45
2022/09/29 13:39:41;;;;;;;;;;;19.10;48.70;;;;;;8333220;28;20459;-44
2022/09/29 13:43:42;;;;;;;;;;;19.10;48.70;;;;;;8333303;28;19927;-45
2022/09/29 13:47:49;;;;;;;;;;;19.10;48.60;;;;;;8332533;28;19921;-45
2022/09/29 13:51:50;;;;;;;;;;;19.10;48.60;;;;;;8331939;28;19917;-45
2022/09/29 13:55:52;;;;;;;;;;;19.10;48.60;;;;;;8332860;28;20282;-46
2022/09/29 13:59:55;;;;;;;;;;;19.10;48.70;;;;;;8332097;28;20371;-44
2022/09/29 14:03:55;;;;;;;;;;;19.10;48.60;;;;;;8332855;28;19924;-45
2022/09/29 14:07:56;;;;;;;;;;;19.10;48.60;;;;;;8331675;28;20004;-44
2022/09/29 14:12:01;;;;;;;;;;;19.10;48.60;;;;;;8358849;28;20335;-46
2022/09/29 14:16:07;;;;;;;;;;;19.10;48.60;;;;;;8332563;28;19921;-44
2022/09/29 14:20:31;;;;;;;;;;;19.10;48.60;;;;;;8331969;28;19936;-43
2022/09/29 14:24:35;;;;;;;;;;;19.10;48.60;;;;;;8323560;28;19971;-45
2022/09/29 14:28:40;;;;;;;;;;;19.10;48.60;;;;;;8332061;28;19987;-43
2022/09/29 14:32:45;;;;;;;;;;;19.10;48.60;;;;;;8331402;28;19917;-44
2022/09/29 14:36:47;;;;;;;;;;;19.10;48.60;;;;;;8331525;28;19951;-44
2022/09/29 14:40:57;;;;;;;;;;;19.10;48.60;;;;;;8331723;28;19958;-43
2022/09/29 14:51:56;;;;;;;;;;;19.10;48.60;;;;;;8331425;28;19932;-44
2022/09/29 14:53:51;;;;;;;;;;;19.10;48.60;;;;;;8330573;28;19924;-44
2022/09/29 14:58:10;;;;;;;;;;;19.10;48.60;;;;;;8330916;28;19925;-44
2022/09/29 15:02:15;;;;;;;;;;;19.10;48.60;;;;;;8330927;28;20437;-44
2022/09/29 15:06:20;;;;;;;;;;;19.10;48.60;;;;;;8330397;28;19996;-44
2022/09/29 15:10:22;;;;;;;;;;;19.10;48.60;;;;;;8330910;28;19996;-44
2022/09/29 15:14:24;;;;;;;;;;;19.10;48.60;;;;;;8330146;28;19921;-45
2022/09/29 15:18:37;;;;;;;;;;;19.10;48.60;;;;;;8329967;28;19932;-44
2022/09/29 15:22:51;;;;;;;;;;;19.10;48.60;;;;;;8330425;28;19917;-44
2022/09/29 15:26:52;;;;;;;;;;;19.10;48.60;;;;;;8329980;28;19921;-43
2022/09/29 15:30:54;;;;;;;;;;;19.10;48.70;;;;;;8330623;28;20382;-44
2022/09/29 15:35:01;;;;;;;;;;;19.10;48.70;;;;;;8330215;28;20405;-43
2022/09/29 15:39:06;;;;;;;;;;;19.10;48.70;;;;;;8329670;28;19975;-43
2022/09/29 15:43:19;;;;;;;;;;;19.10;48.60;;;;;;8329880;28;19917;-44
2022/09/29 15:47:21;;;;;;;;;;;19.10;49.20;;;;;;8330180;28;19917;-44
2022/09/29 15:51:21;;;;;;;;;;;19.10;48.70;;;;;;8329770;28;19913;-44
2022/09/29 15:55:23;;;;;;;;;;;19.10;48.70;;;;;;8327676;28;19924;-44
2022/09/29 15:59:42;;;;;;;;;;;19.10;48.70;;;;;;8300316;28;19929;-44
2022/09/29 16:03:49;;;;;;;;;;;19.10;48.70;;;;;;8297176;28;19921;-43
2022/09/29 16:07:57;;;;;;;;;;;19.10;48.70;;;;;;8327414;28;19917;-44
2022/09/29 16:12:04;;;;;;;;;;;19.10;48.70;;;;;;8306624;28;20383;-44
2022/09/29 16:16:09;;;;;;;;;;;19.10;48.80;;;;;;8308320;28;20004;-43
2022/09/29 16:20:16;;;;;;;;;;;19.10;48.80;;;;;;8299087;28;19979;-44
2022/09/29 16:24:20;;;;;;;;;;;19.10;48.80;;;;;;8336919;28;20397;-45
2022/09/29 16:28:24;;;;;;;;;;;19.10;48.80;;;;;;8332601;28;20269;-43
2022/09/29 16:32:31;;;;;;;;;;;19.10;48.80;;;;;;8318570;28;19918;-44
2022/09/29 16:36:34;;;;;;;;;;;19.10;48.80;;;;;;8335411;28;19928;-44
2022/09/29 16:40:39;;;;;;;;;;;19.00;48.80;;;;;;8324683;28;20420;-45
2022/09/29 16:44:42;;;;;;;;;;;19.00;48.80;;;;;;8317229;28;20047;-44
2022/09/29 16:48:43;;;;;;;;;;;19.10;48.90;;;;;;8314124;28;19922;-43
2022/09/29 16:52:48;;;;;;;;;;;19.00;48.80;;;;;;8325063;28;19917;-44
2022/09/29 16:56:48;;;;;;;;;;;19.10;48.90;;;;;;8331544;28;19921;-45
2022/09/29 17:00:49;;;;;;;;;;;19.00;48.80;;;;;;8303639;28;20302;-43
2022/09/29 17:04:50;;;;;;;;;;;19.10;48.80;;;;;;8305888;28;20008;-43
2022/09/29 17:08:50;;;;;;;;;;;19.00;48.80;;;;;;8307194;28;19922;-44
2022/09/29 17:12:51;;;;;;;;;;;19.00;48.80;;;;;;8330570;28;19917;-44
2022/09/29 17:16:51;;;;;;;;;;;19.00;48.80;;;;;;8301541;28;19925;-44
2022/09/29 17:20:52;;;;;;;;;;;19.00;49.40;;;;;;8331218;28;19975;-44
2022/09/29 17:24:52;;;;;;;;;;;19.00;48.80;;;;;;8319395;28;19952;-43
2022/09/29 17:28:53;;;;;;;;;;;19.00;48.90;;;;;;8312321;28;19924;-44
2022/09/29 17:32:54;;;;;;;;;;;19.00;48.90;;;;;;8328581;28;19925;-43
2022/09/29 17:36:56;;;;;;;;;;;19.00;48.90;;;;;;8322339;28;19960;-44
2022/09/29 17:41:01;;;;;;;;;;;19.00;48.90;;;;;;8327012;28;19960;-44
2022/09/29 17:45:03;;;;;;;;;;;19.00;48.80;;;;;;8315578;28;19926;-43
2022/09/29 17:49:08;;;;;;;;;;;19.00;48.90;;;;;;8303568;28;20271;-44
2022/09/29 17:53:10;;;;;;;;;;;19.00;48.90;;;;;;8310838;28;19917;-43
2022/09/29 17:57:24;;;;;;;;;;;19.00;48.90;;;;;;8305915;28;20406;-43
2022/09/29 18:01:24;;;;;;;;;;;19.00;48.90;;;;;;8312742;28;19917;-43
2022/09/29 18:05:26;;;;;;;;;;;19.00;48.90;;;;;;8311904;28;19925;-45
2022/09/29 18:09:27;;;;;;;;;;;19.00;48.90;;;;;;8299685;28;19980;-44
2022/09/29 18:13:30;;;;;;;;;;;19.00;48.90;;;;;;8304981;28;19922;-46
2022/09/29 18:17:30;;;;;;;;;;;19.00;48.90;;;;;;8312453;28;19926;-45
2022/09/29 18:21:32;;;;;;;;;;;19.00;48.90;;;;;;8329732;28;20004;-45
2022/09/29 18:25:33;;;;;;;;;;;19.00;48.90;;;;;;8325307;28;19971;-47
2022/09/29 18:29:33;;;;;;;;;;;19.00;48.90;;;;;;8312358;28;19971;-47
2022/09/29 18:33:34;;;;;;;;;;;19.00;48.90;;;;;;8320439;28;19929;-45
2022/09/29 18:37:34;;;;;;;;;;;19.00;48.90;;;;;;8297289;28;19983;-48
2022/09/29 18:41:34;;;;;;;;;;;19.00;48.90;;;;;;8313511;28;20012;-46
2022/09/29 18:45:36;;;;;;;;;;;19.00;48.90;;;;;;8309047;28;19917;-45
2022/09/29 18:49:36;;;;;;;;;;;19.00;48.90;;;;;;8310977;28;20297;-48
2022/09/29 18:53:37;;;;;;;;;;;19.00;49.00;;;;;;8312717;28;19917;-47
2022/09/29 18:57:37;;;;;;;;;;;19.00;48.90;;;;;;8326797;28;19925;-46
2022/09/29 19:01:38;;;;;;;;;;;19.00;49.00;;;;;;8330980;28;20305;-47
2022/09/29 19:05:41;;;;;;;;;;;18.90;48.90;;;;;;8330698;28;20313;-45
2022/09/29 19:09:42;;;;;;;;;;;19.00;49.00;;;;;;8325158;28;19925;-44
2022/09/29 19:13:42;;;;;;;;;;;19.00;49.00;;;;;;8302116;28;20358;-45
2022/09/29 19:17:43;;;;;;;;;;;19.00;49.00;;;;;;8330423;28;19994;-45
2022/09/29 19:21:44;;;;;;;;;;;19.00;49.00;;;;;;8330787;28;19917;-45
2022/09/29 19:25:45;;;;;;;;;;;19.00;49.00;;;;;;8330214;28;20389;-46
2022/09/29 19:29:45;;;;;;;;;;;19.00;49.00;;;;;;8329983;28;19917;-48
2022/09/29 19:33:46;;;;;;;;;;;19.00;49.00;;;;;;8330682;28;19971;-45
2022/09/29 19:37:47;;;;;;;;;;;18.90;48.90;;;;;;8330316;28;19932;-46
2022/09/29 19:41:48;;;;;;;;;;;19.00;49.00;;;;;;8329956;28;19917;-46
2022/09/29 19:45:48;;;;;;;;;;;19.00;49.00;;;;;;8330082;28;19924;-45
2022/09/29 19:51:48;;;;;;;;;;;19.00;49.00;;;;;;8330275;28;19913;-45
2022/09/29 19:54:10;;;;;;;;;;;19.00;49.00;;;;;;8329815;28;19972;-45
2022/09/29 19:58:10;;;;;;;;;;;19.00;49.00;;;;;;8330431;28;19921;-45
2022/09/29 20:02:12;;;;;;;;;;;19.00;49.00;;;;;;8336728;28;19917;-44
2022/09/29 20:06:13;;;;;;;;;;;19.00;49.00;;;;;;8336186;28;19925;-45
2022/09/29 20:10:15;;;;;;;;;;;18.90;49.00;;;;;;8336709;28;20400;-47
2022/09/29 20:14:17;;;;;;;;;;;19.00;49.00;;;;;;8336452;28;19917;-49
2022/09/29 20:18:18;;;;;;;;;;;19.00;49.00;;;;;;8335945;28;20405;-45
2022/09/29 20:22:18;;;;;;;;;;;19.00;48.90;;;;;;8336442;28;19917;-47
2022/09/29 20:26:19;;;;;;;;;;;18.90;48.90;;;;;;8336028;28;19937;-45
2022/09/29 20:30:20;;;;;;;;;;;18.90;48.90;;;;;;8335458;28;20310;-44
2022/09/29 20:34:21;;;;;;;;;;;18.90;48.90;;;;;;8335772;28;20317;-44
2022/09/29 20:38:21;;;;;;;;;;;18.90;48.90;;;;;;8335701;28;19932;-45
2022/09/29 20:42:22;;;;;;;;;;;18.90;48.90;;;;;;8335160;28;19924;-45
2022/09/29 20:46:22;;;;;;;;;;;18.90;48.90;;;;;;8335293;28;19956;-46
2022/09/29 20:50:23;;;;;;;;;;;18.90;48.90;;;;;;8335453;28;20008;-46
2022/09/29 20:54:23;;;;;;;;;;;19.00;48.90;;;;;;8334706;28;20003;-48
2022/09/29 20:58:23;;;;;;;;;;;18.90;48.80;;;;;;8335111;28;20059;-48
2022/09/29 21:02:24;;;;;;;;;;;19.00;48.90;;;;;;8334927;28;19921;-46
2022/09/29 21:06:25;;;;;;;;;;;18.90;48.80;;;;;;8334481;28;20378;-48
2022/09/29 21:10:26;;;;;;;;;;;19.00;48.90;;;;;;8333852;28;19928;-46
2022/09/29 21:14:28;;;;;;;;;;;18.90;48.80;;;;;;8334710;28;19917;-46
2022/09/29 21:18:29;;;;;;;;;;;18.90;48.80;;;;;;8334116;28;19925;-46
2022/09/29 21:22:29;;;;;;;;;;;18.90;48.80;;;;;;8334572;28;20007;-46
2022/09/29 21:26:30;;;;;;;;;;;18.90;48.80;;;;;;8333791;28;19917;-45
2022/09/29 21:30:31;;;;;;;;;;;18.90;48.80;;;;;;8334278;28;20350;-46
2022/09/29 21:34:31;;;;;;;;;;;18.90;48.80;;;;;;8337488;28;19963;-45
2022/09/29 21:38:33;;;;;;;;;;;18.90;48.80;;;;;;8333366;28;20177;-46
2022/09/29 21:42:33;;;;;;;;;;;18.90;48.80;;;;;;8333640;28;20412;-48
2022/09/29 21:46:34;;;;;;;;;;;18.90;48.80;;;;;;8333640;28;19917;-45
2022/09/29 21:50:34;;;;;;;;;;;18.90;48.80;;;;;;8333030;28;19913;-45
2022/09/29 21:54:37;;;;;;;;;;;18.90;48.80;;;;;;8333278;28;20287;-46
2022/09/29 21:58:38;;;;;;;;;;;18.90;48.80;;;;;;8333494;28;19948;-46
2022/09/29 22:02:38;;;;;;;;;;;18.90;48.90;;;;;;8331682;28;19964;-45
2022/09/29 22:06:39;;;;;;;;;;;18.80;48.80;;;;;;8332957;28;19924;-44
2022/09/29 22:10:40;;;;;;;;;;;18.80;48.90;;;;;;8327380;28;19924;-45
2022/09/29 22:14:40;;;;;;;;;;;18.90;48.90;;;;;;8301536;28;19953;-44
2022/09/29 22:18:40;;;;;;;;;;;18.80;48.90;;;;;;8332637;28;19944;-45
2022/09/29 22:22:41;;;;;;;;;;;18.80;48.90;;;;;;8332360;28;20440;-46
2022/09/29 22:26:41;;;;;;;;;;;18.80;48.90;;;;;;8331935;28;19945;-45
2022/09/29 22:30:42;;;;;;;;;;;18.80;48.90;;;;;;8332113;28;19914;-45
2022/09/29 22:34:42;;;;;;;;;;;18.80;48.90;;;;;;8332009;28;19925;-44
2022/09/29 22:38:44;;;;;;;;;;;18.80;48.90;;;;;;8331470;28;19928;-47
2022/09/29 22:42:46;;;;;;;;;;;18.80;49.40;;;;;;8331938;28;20341;-47
2022/09/29 22:46:46;;;;;;;;;;;18.80;48.90;;;;;;8331925;28;19995;-47
2022/09/29 22:50:47;;;;;;;;;;;18.80;48.90;;;;;;8331155;28;19924;-45
2022/09/29 22:54:47;;;;;;;;;;;18.80;48.90;;;;;;8331587;28;19913;-44
2022/09/29 22:58:48;;;;;;;;;;;18.80;48.90;;;;;;8331417;28;19925;-46
2022/09/29 23:02:49;;;;;;;;;;;18.80;48.90;;;;;;8330781;28;19914;-45
2022/09/29 23:06:49;;;;;;;;;;;18.80;49.00;;;;;;8331408;28;19925;-44
2022/09/29 23:10:50;;;;;;;;;;;18.80;48.90;;;;;;8331029;28;19914;-45
2022/09/29 23:14:51;;;;;;;;;;;18.80;49.00;;;;;;8330466;28;19924;-44
2022/09/29 23:18:52;;;;;;;;;;;18.80;49.00;;;;;;8331087;28;19925;-44
2022/09/29 23:22:53;;;;;;;;;;;18.80;49.00;;;;;;8331163;28;19921;-46
2022/09/29 23:26:53;;;;;;;;;;;18.70;48.90;;;;;;8330156;28;20338;-46
2022/09/29 23:30:54;;;;;;;;;;;18.80;49.00;;;;;;8330756;28;20337;-47
2022/09/29 23:34:54;;;;;;;;;;;18.70;49.00;;;;;;8330390;28;19918;-46
2022/09/29 23:39:12;;;;;;;;;;;18.70;49.00;;;;;;8329843;28;20401;-46